createdAt,value
2019-03-19T00:02:29.210Z,16.70
2019-03-19T00:04:57.916Z,14.03
2019-03-19T00:07:26.331Z,12.67
2019-03-19T00:09:55.044Z,22.07
2019-03-19T00:12:23.485Z,26.60
2019-03-19T00:14:52.185Z,30.43
2019-03-19T00:17:20.872Z,15.60
2019-03-19T00:19:49.311Z,14.90
2019-03-19T00:22:17.751Z,23.93
2019-03-19T00:24:46.196Z,13.77
2019-03-19T00:27:14.628Z,14.33
2019-03-19T00:29:43.340Z,13.87
2019-03-19T00:32:11.755Z,13.40
2019-03-19T00:34:40.279Z,16.27
2019-03-19T00:37:08.975Z,11.20
2019-03-19T00:39:37.676Z,12.17
2019-03-19T00:42:06.112Z,9.70
2019-03-19T00:44:34.825Z,11.13
2019-03-19T00:47:03.512Z,14.23
2019-03-19T00:49:32.227Z,16.00
2019-03-19T00:52:00.919Z,10.50
2019-03-19T00:54:29.370Z,10.93
2019-03-19T00:56:58.068Z,13.83
2019-03-19T00:59:26.523Z,13.27
2019-03-19T01:01:55.268Z,12.47
2019-03-19T01:04:23.959Z,8.40
2019-03-19T01:06:52.457Z,10.70
2019-03-19T01:09:21.147Z,12.07
2019-03-19T01:11:49.578Z,11.73
2019-03-19T01:14:18.268Z,12.97
2019-03-19T01:16:46.966Z,9.43
2019-03-19T01:19:15.683Z,13.00
2019-03-19T01:21:44.103Z,16.63
2019-03-19T01:24:12.791Z,15.37
2019-03-19T01:26:41.484Z,12.40
2019-03-19T01:29:09.920Z,17.57
2019-03-19T01:31:38.363Z,12.87
2019-03-19T01:34:07.073Z,12.70
2019-03-19T01:36:35.760Z,11.07
2019-03-19T01:39:05.589Z,9.90
2019-03-19T01:41:34.027Z,14.27
2019-03-19T01:44:02.543Z,12.27
2019-03-19T01:46:30.994Z,16.00
2019-03-19T01:48:59.421Z,20.40
2019-03-19T01:51:28.125Z,15.03
2019-03-19T01:53:56.795Z,18.60
2019-03-19T01:56:25.252Z,13.30
2019-03-19T01:58:53.679Z,16.80
2019-03-19T02:01:22.371Z,12.30
2019-03-19T02:03:50.805Z,14.80
2019-03-19T02:06:19.259Z,10.13
2019-03-19T02:08:47.698Z,14.20
2019-03-19T02:11:16.397Z,13.50
2019-03-19T02:13:44.908Z,14.97
2019-03-19T02:16:13.354Z,12.63
2019-03-19T02:18:42.044Z,8.43
2019-03-19T02:21:10.752Z,15.93
2019-03-19T02:23:39.188Z,18.43
2019-03-19T02:26:16.000Z,14.43
2019-03-19T02:28:37.876Z,13.80
2019-03-19T02:31:06.323Z,11.03
2019-03-19T02:33:34.759Z,11.63
2019-03-19T02:36:03.532Z,11.63
2019-03-19T02:38:31.959Z,17.07
2019-03-19T02:41:00.399Z,17.27
2019-03-19T02:43:28.821Z,12.87
2019-03-19T02:45:57.266Z,13.87
2019-03-19T02:48:25.708Z,14.83
2019-03-19T02:50:54.223Z,24.23
2019-03-19T02:53:22.916Z,14.43
2019-03-19T02:55:51.637Z,13.03
2019-03-19T02:58:20.453Z,13.40
2019-03-19T03:00:49.165Z,12.20
2019-03-19T03:03:17.848Z,11.03
2019-03-19T03:05:46.554Z,14.73
2019-03-19T03:08:14.981Z,18.63
2019-03-19T03:10:43.494Z,17.00
2019-03-19T03:13:11.929Z,16.23
2019-03-19T03:15:40.628Z,15.27
2019-03-19T03:18:09.335Z,11.07
2019-03-19T03:20:37.796Z,12.73
2019-03-19T03:23:06.319Z,10.97
2019-03-19T03:25:35.079Z,14.33
2019-03-19T03:28:03.607Z,14.47
2019-03-19T03:30:32.112Z,11.97
2019-03-19T03:33:00.613Z,13.37
2019-03-19T03:35:29.303Z,11.70
2019-03-19T03:37:58.004Z,15.70
2019-03-19T03:40:26.789Z,13.17
2019-03-19T03:42:55.219Z,18.10
2019-03-19T03:45:23.912Z,13.10
2019-03-19T03:47:52.368Z,14.53
2019-03-19T03:50:21.136Z,16.43
2019-03-19T03:52:49.655Z,14.67
2019-03-19T03:55:20.092Z,15.90
2019-03-19T03:57:48.677Z,22.67
2019-03-19T04:00:22.163Z,12.73
2019-03-19T04:02:51.020Z,17.60
2019-03-19T04:05:19.631Z,14.43
2019-03-19T04:07:48.349Z,12.57
2019-03-19T04:10:17.756Z,12.40
2019-03-19T04:12:46.213Z,12.17
2019-03-19T04:15:18.225Z,13.30
2019-03-19T04:17:47.061Z,12.10
2019-03-19T04:20:16.605Z,14.37
2019-03-19T04:22:45.055Z,13.13
2019-03-19T04:25:13.741Z,10.03
2019-03-19T04:27:42.180Z,13.47
2019-03-19T04:30:13.704Z,14.70
2019-03-19T04:32:42.211Z,16.27
2019-03-19T04:35:10.785Z,12.00
2019-03-19T04:37:39.380Z,12.17
2019-03-19T04:40:10.241Z,14.73
2019-03-19T04:42:38.703Z,15.97
2019-03-19T04:45:15.088Z,13.27
2019-03-19T04:47:43.884Z,14.23
2019-03-19T04:50:16.187Z,9.10
2019-03-19T04:52:44.914Z,11.17
2019-03-19T04:55:16.829Z,15.10
2019-03-19T04:57:45.664Z,10.70
2019-03-19T05:00:20.619Z,8.00
2019-03-19T05:02:49.321Z,12.03
2019-03-19T05:05:18.029Z,11.67
2019-03-19T05:07:46.534Z,18.00
2019-03-19T05:10:18.372Z,18.63
2019-03-19T05:12:46.943Z,8.03
2019-03-19T05:15:15.451Z,11.83
2019-03-19T05:17:43.964Z,11.97
2019-03-19T05:20:16.252Z,14.00
2019-03-19T05:22:44.948Z,13.00
2019-03-19T05:25:13.449Z,22.10
2019-03-19T05:27:42.132Z,15.07
2019-03-19T05:30:12.928Z,10.83
2019-03-19T05:32:41.638Z,17.93
2019-03-19T05:35:10.516Z,14.50
2019-03-19T05:37:39.305Z,12.73
2019-03-19T05:40:14.526Z,14.63
2019-03-19T05:42:42.963Z,13.57
2019-03-19T05:45:16.470Z,12.00
2019-03-19T05:47:45.199Z,15.53
2019-03-19T05:50:18.240Z,19.03
2019-03-19T05:52:48.430Z,17.33
2019-03-19T05:55:17.083Z,19.67
2019-03-19T05:57:50.010Z,15.50
2019-03-19T06:00:17.385Z,19.33
2019-03-19T06:02:45.884Z,15.57
2019-03-19T06:05:14.315Z,20.07
2019-03-19T06:07:43.002Z,12.90
2019-03-19T06:10:14.611Z,16.60
2019-03-19T06:12:43.199Z,15.10
2019-03-19T06:15:13.843Z,11.10
2019-03-19T06:17:42.556Z,13.67
2019-03-19T06:20:18.142Z,18.13
2019-03-19T06:22:47.081Z,12.40
2019-03-19T06:25:15.841Z,12.30
2019-03-19T06:27:44.347Z,21.63
2019-03-19T06:30:18.690Z,14.40
2019-03-19T06:32:47.224Z,13.83
2019-03-19T06:35:16.190Z,29.43
2019-03-19T06:37:44.699Z,13.50
2019-03-19T06:40:14.760Z,25.20
2019-03-19T06:42:43.488Z,20.50
2019-03-19T06:45:16.626Z,25.80
2019-03-19T06:47:45.059Z,19.87
2019-03-19T06:50:15.386Z,16.50
2019-03-19T06:52:44.179Z,23.33
2019-03-19T06:55:13.812Z,14.57
2019-03-19T06:57:42.245Z,16.70
2019-03-19T07:00:21.743Z,16.63
2019-03-19T07:02:50.188Z,19.40
2019-03-19T07:05:19.893Z,16.30
2019-03-19T07:07:48.879Z,21.73
2019-03-19T07:10:21.153Z,14.70
2019-03-19T07:12:49.656Z,26.63
2019-03-19T07:15:20.252Z,23.07
2019-03-19T07:17:48.948Z,18.20
2019-03-19T07:20:22.223Z,18.33
2019-03-19T07:22:50.928Z,16.73
2019-03-19T07:25:19.362Z,20.07
2019-03-19T07:27:48.052Z,19.00
2019-03-19T07:30:23.190Z,19.40
2019-03-19T07:32:51.631Z,19.53
2019-03-19T07:35:20.333Z,23.47
2019-03-19T07:37:49.162Z,19.40
2019-03-19T07:40:18.459Z,23.60
2019-03-19T07:42:46.928Z,20.60
2019-03-19T07:45:21.348Z,17.73
2019-03-19T07:47:49.795Z,22.17
2019-03-19T07:50:20.577Z,18.33
2019-03-19T07:52:49.009Z,17.00
2019-03-19T07:55:17.447Z,18.50
2019-03-19T07:57:46.055Z,19.73
2019-03-19T08:00:20.049Z,17.93
2019-03-19T08:02:48.471Z,17.33
2019-03-19T08:05:17.311Z,19.87
2019-03-19T08:07:46.120Z,16.73
2019-03-19T08:10:15.700Z,21.93
2019-03-19T08:12:44.524Z,15.13
2019-03-19T08:15:14.108Z,18.00
2019-03-19T08:17:43.150Z,17.87
2019-03-19T08:20:13.920Z,15.23
2019-03-19T08:22:42.715Z,21.93
2019-03-19T08:25:14.867Z,15.57
2019-03-19T08:27:43.324Z,15.17
2019-03-19T08:30:14.849Z,20.00
2019-03-19T08:32:43.271Z,18.63
2019-03-19T08:35:11.738Z,17.07
2019-03-19T08:37:40.236Z,14.90
2019-03-19T08:40:11.580Z,14.87
2019-03-19T08:42:40.019Z,16.80
2019-03-19T08:45:13.879Z,13.63
2019-03-19T08:47:42.323Z,12.30
2019-03-19T08:50:17.691Z,12.03
2019-03-19T08:52:46.193Z,10.67
2019-03-19T08:55:14.704Z,21.70
2019-03-19T08:57:43.523Z,11.70
2019-03-19T09:00:20.671Z,14.40
2019-03-19T09:02:49.144Z,15.43
2019-03-19T09:05:17.896Z,10.47
2019-03-19T09:07:46.391Z,16.27
2019-03-19T09:10:16.845Z,14.67
2019-03-19T09:12:48.025Z,15.47
2019-03-19T09:15:23.487Z,14.50
2019-03-19T09:17:51.927Z,13.33
2019-03-19T09:20:20.646Z,18.23
2019-03-19T09:22:49.340Z,15.30
2019-03-19T09:25:17.915Z,20.70
2019-03-19T09:27:46.411Z,12.83
2019-03-19T09:30:21.372Z,15.43
2019-03-19T09:32:50.068Z,11.30
2019-03-19T09:35:18.511Z,9.70
2019-03-19T09:37:57.699Z,20.80
2019-03-19T09:40:21.145Z,14.20
2019-03-19T09:42:49.642Z,14.23
2019-03-19T09:45:18.931Z,10.23
2019-03-19T09:47:47.684Z,15.10
2019-03-19T09:50:26.726Z,13.97
2019-03-19T09:52:55.145Z,11.17
2019-03-19T09:55:23.579Z,14.10
2019-03-19T09:57:52.011Z,12.70
2019-03-19T10:00:21.198Z,14.63
2019-03-19T10:02:49.639Z,12.23
2019-03-19T10:05:18.395Z,9.33
2019-03-19T10:07:47.182Z,12.20
2019-03-19T10:10:20.881Z,14.33
2019-03-19T10:12:49.651Z,12.63
2019-03-19T10:15:18.590Z,13.50
2019-03-19T10:17:47.091Z,13.00
2019-03-19T10:20:21.833Z,10.30
2019-03-19T10:22:50.524Z,9.33
2019-03-19T10:25:19.228Z,15.17
2019-03-19T10:27:47.757Z,7.60
2019-03-19T10:30:24.136Z,12.80
2019-03-19T10:32:52.888Z,12.17
2019-03-19T10:35:21.336Z,8.03
2019-03-19T10:37:49.759Z,8.60
2019-03-19T10:40:19.443Z,9.27
2019-03-19T10:42:48.128Z,14.37
2019-03-19T10:45:23.806Z,10.77
2019-03-19T10:47:52.652Z,12.07
2019-03-19T10:50:26.064Z,13.13
2019-03-19T10:52:54.767Z,9.17
2019-03-19T10:55:23.620Z,9.83
2019-03-19T10:57:52.076Z,11.00
2019-03-19T11:00:24.412Z,13.30
2019-03-19T11:02:53.545Z,7.20
2019-03-19T11:05:25.238Z,9.37
2019-03-19T11:07:53.671Z,4.63
2019-03-19T11:10:22.487Z,6.80
2019-03-19T11:12:50.920Z,8.07
2019-03-19T11:15:26.657Z,11.03
2019-03-19T11:17:55.442Z,6.50
2019-03-19T11:20:24.143Z,9.13
2019-03-19T11:22:52.713Z,13.30
2019-03-19T11:25:29.999Z,5.67
2019-03-19T11:27:58.435Z,9.00
2019-03-19T11:30:28.416Z,8.00
2019-03-19T11:32:56.851Z,8.30
2019-03-19T11:35:25.439Z,10.57
2019-03-19T11:37:53.927Z,9.23
2019-03-19T11:40:22.451Z,10.90
2019-03-19T11:42:51.542Z,7.97
2019-03-19T11:45:22.003Z,5.70
2019-03-19T11:47:50.599Z,5.80
2019-03-19T11:50:23.156Z,6.93
2019-03-19T11:52:52.394Z,10.97
2019-03-19T11:55:21.263Z,6.17
2019-03-19T11:57:49.721Z,9.50
2019-03-19T12:00:30.534Z,7.53
2019-03-19T12:02:58.992Z,11.07
2019-03-19T12:05:27.421Z,8.60
2019-03-19T12:07:55.871Z,6.70
2019-03-19T12:10:24.308Z,6.60
2019-03-19T12:12:53.020Z,7.60
2019-03-19T12:15:21.709Z,7.27
2019-03-19T12:17:50.412Z,11.20
2019-03-19T12:20:20.803Z,5.70
2019-03-19T12:22:49.582Z,4.27
2019-03-19T12:25:18.065Z,5.10
2019-03-19T12:27:46.798Z,5.87
2019-03-19T12:30:25.978Z,8.30
2019-03-19T12:32:53.193Z,14.67
2019-03-19T12:35:21.879Z,9.77
2019-03-19T12:37:50.678Z,4.27
2019-03-19T12:40:20.318Z,10.50
2019-03-19T12:42:48.770Z,9.63
2019-03-19T12:45:18.665Z,6.30
2019-03-19T12:47:47.392Z,9.27
2019-03-19T12:50:24.119Z,8.97
2019-03-19T12:52:52.638Z,4.73
2019-03-19T12:55:21.236Z,5.57
2019-03-19T12:57:50.033Z,8.30
2019-03-19T13:00:32.894Z,10.07
2019-03-19T13:02:52.891Z,13.00
2019-03-19T13:05:22.662Z,10.03
2019-03-19T13:07:51.454Z,11.93
2019-03-19T13:10:22.480Z,7.60
2019-03-19T13:12:51.243Z,10.27
2019-03-19T13:15:20.478Z,12.70
2019-03-19T13:17:49.454Z,7.70
2019-03-19T13:20:19.047Z,10.63
2019-03-19T13:22:47.543Z,5.60
2019-03-19T13:25:20.652Z,8.63
2019-03-19T13:27:49.099Z,11.77
2019-03-19T13:30:22.451Z,7.50
2019-03-19T13:32:50.969Z,6.87
2019-03-19T13:35:19.646Z,6.10
2019-03-19T13:37:48.344Z,7.37
2019-03-19T13:40:17.616Z,6.70
2019-03-19T13:42:46.311Z,10.67
2019-03-19T13:45:21.539Z,8.53
2019-03-19T13:47:50.251Z,8.50
2019-03-19T13:50:19.613Z,8.00
2019-03-19T13:52:48.156Z,5.40
2019-03-19T13:55:20.270Z,8.10
2019-03-19T13:57:48.769Z,8.60
2019-03-19T14:00:18.130Z,5.93
2019-03-19T14:02:47.140Z,16.00
2019-03-19T14:05:16.316Z,7.63
2019-03-19T14:07:45.110Z,5.40
2019-03-19T14:10:14.788Z,10.37
2019-03-19T14:12:43.302Z,7.70
2019-03-19T14:15:19.716Z,8.20
2019-03-19T14:17:48.231Z,6.50
2019-03-19T14:20:19.834Z,4.37
2019-03-19T14:22:48.312Z,5.25
2019-03-19T14:25:17.203Z,6.00
2019-03-19T14:27:45.794Z,6.70
2019-03-19T14:30:23.899Z,4.50
2019-03-19T14:32:52.609Z,6.77
2019-03-19T14:35:21.300Z,7.00
2019-03-19T14:37:49.760Z,6.17
2019-03-19T14:40:19.420Z,5.53
2019-03-19T14:42:48.141Z,8.93
2019-03-19T14:45:17.392Z,6.90
2019-03-19T14:47:46.232Z,8.50
2019-03-19T14:50:22.356Z,5.60
2019-03-19T14:52:51.074Z,8.83
2019-03-19T14:55:19.577Z,10.43
2019-03-19T14:57:50.757Z,5.23
2019-03-19T15:00:21.775Z,9.73
2019-03-19T15:02:50.449Z,8.43
2019-03-19T15:05:18.879Z,11.43
2019-03-19T15:07:47.319Z,7.10
2019-03-19T15:10:17.859Z,8.60
2019-03-19T15:12:46.330Z,9.50
2019-03-19T15:15:16.763Z,8.90
2019-03-19T15:17:45.649Z,6.90
2019-03-19T15:20:21.232Z,10.90
2019-03-19T15:22:49.747Z,8.67
2019-03-19T15:25:18.431Z,6.73
2019-03-19T15:27:47.359Z,9.07
2019-03-19T15:30:17.811Z,9.10
2019-03-19T15:32:46.396Z,8.43
2019-03-19T15:35:14.908Z,13.63
2019-03-19T15:37:43.618Z,8.20
2019-03-19T15:40:15.770Z,10.07
2019-03-19T15:42:44.358Z,11.50
2019-03-19T15:45:21.024Z,6.97
2019-03-19T15:47:49.478Z,9.57
2019-03-19T15:50:17.911Z,14.20
2019-03-19T15:52:46.617Z,13.70
2019-03-19T15:55:15.672Z,13.40
2019-03-19T15:57:44.253Z,9.60
2019-03-19T16:00:16.624Z,11.77
2019-03-19T16:02:45.136Z,11.97
2019-03-19T16:05:14.118Z,10.57
2019-03-19T16:07:42.803Z,12.60
2019-03-19T16:10:13.337Z,10.23
2019-03-19T16:12:41.794Z,11.93
2019-03-19T16:15:16.215Z,9.50
2019-03-19T16:17:44.747Z,10.70
2019-03-19T16:20:17.141Z,12.20
2019-03-19T16:22:45.673Z,15.10
2019-03-19T16:25:14.334Z,10.57
2019-03-19T16:27:43.119Z,8.40
2019-03-19T16:30:13.948Z,11.67
2019-03-19T16:32:42.483Z,13.40
2019-03-19T16:35:11.963Z,10.00
2019-03-19T16:37:40.472Z,13.17
2019-03-19T16:40:19.256Z,9.13
2019-03-19T16:42:47.767Z,13.60
2019-03-19T16:45:17.948Z,9.27
2019-03-19T16:47:47.009Z,15.90
2019-03-19T16:50:19.352Z,12.53
2019-03-19T16:52:47.950Z,13.80
2019-03-19T16:55:17.596Z,11.30
2019-03-19T16:57:46.295Z,16.17
2019-03-19T17:00:16.652Z,10.17
2019-03-19T17:02:45.133Z,10.83
2019-03-19T17:05:14.656Z,11.57
2019-03-19T17:07:43.452Z,10.10
2019-03-19T17:10:14.636Z,11.50
2019-03-19T17:12:43.148Z,11.93
2019-03-19T17:15:16.197Z,12.30
2019-03-19T17:17:45.152Z,11.37
2019-03-19T17:20:14.439Z,12.07
2019-03-19T17:22:42.883Z,11.15
2019-03-19T17:25:24.802Z,17.53
2019-03-19T17:27:53.288Z,9.37
2019-03-19T17:30:29.512Z,11.20
2019-03-19T17:32:58.295Z,13.47
2019-03-19T17:35:27.702Z,10.63
2019-03-19T17:37:56.148Z,12.40
2019-03-19T17:40:24.890Z,10.43
2019-03-19T17:42:53.411Z,7.93
2019-03-19T17:45:21.882Z,9.23
2019-03-19T17:47:50.339Z,11.30
2019-03-19T17:50:27.591Z,9.83
2019-03-19T17:52:56.582Z,10.30
2019-03-19T17:55:25.096Z,16.57
2019-03-19T17:57:53.552Z,14.03
2019-03-19T18:00:23.711Z,15.97
2019-03-19T18:02:52.212Z,15.27
2019-03-19T18:05:20.993Z,15.13
2019-03-19T18:07:49.518Z,10.23
2019-03-19T18:10:17.974Z,16.27
2019-03-19T18:12:46.395Z,12.97
2019-03-19T18:15:19.275Z,18.40
2019-03-19T18:17:47.711Z,13.53
2019-03-19T18:20:19.203Z,11.37
2019-03-19T18:22:47.643Z,15.20
2019-03-19T18:25:20.026Z,10.27
2019-03-19T18:27:48.860Z,20.73
2019-03-19T18:30:21.982Z,17.40
2019-03-19T18:32:50.568Z,19.37
2019-03-19T18:35:19.011Z,12.13
2019-03-19T18:37:47.706Z,15.03
2019-03-19T18:40:19.403Z,13.30
2019-03-19T18:42:47.903Z,13.97
2019-03-19T18:45:19.928Z,17.37
2019-03-19T18:47:48.633Z,18.33
2019-03-19T18:50:21.130Z,15.00
2019-03-19T18:52:49.688Z,14.93
2019-03-19T18:55:18.610Z,19.30
2019-03-19T18:57:47.105Z,15.93
2019-03-19T19:00:20.754Z,18.70
2019-03-19T19:02:50.792Z,15.20
2019-03-19T19:05:20.768Z,14.03
2019-03-19T19:07:49.736Z,13.30
2019-03-19T19:10:21.059Z,16.30
2019-03-19T19:12:49.266Z,16.67
2019-03-19T19:15:23.341Z,18.97
2019-03-19T19:17:51.785Z,9.00
2019-03-19T19:20:20.529Z,11.47
2019-03-19T19:22:49.095Z,15.90
2019-03-19T19:25:25.674Z,16.13
2019-03-19T19:27:54.371Z,19.13
2019-03-19T19:30:25.210Z,14.37
2019-03-19T19:33:01.548Z,11.07
2019-03-19T19:35:23.822Z,16.27
2019-03-19T19:37:52.250Z,16.00
2019-03-19T19:40:20.951Z,17.00
2019-03-19T19:42:49.531Z,20.13
2019-03-19T19:45:19.095Z,19.17
2019-03-19T19:47:47.884Z,17.83
2019-03-19T19:50:18.416Z,20.30
2019-03-19T19:52:47.188Z,20.50
2019-03-19T19:55:15.879Z,23.97
2019-03-19T19:57:44.489Z,18.27
2019-03-19T20:00:22.642Z,18.57
2019-03-19T20:02:51.156Z,20.70
2019-03-19T20:05:19.955Z,17.53
2019-03-19T20:07:48.462Z,16.30
2019-03-19T20:10:24.875Z,20.00
2019-03-19T20:12:53.299Z,23.43
2019-03-19T20:15:22.090Z,25.67
2019-03-19T20:17:50.860Z,15.70
2019-03-19T20:20:24.885Z,14.57
2019-03-19T20:22:53.575Z,16.33
2019-03-19T20:25:22.123Z,23.33
2019-03-19T20:27:50.870Z,16.50
2019-03-19T20:30:20.541Z,16.60
2019-03-19T20:32:48.959Z,27.70
2019-03-19T20:35:17.422Z,17.80
2019-03-19T20:37:46.224Z,17.17
2019-03-19T20:40:15.825Z,20.23
2019-03-19T20:42:44.275Z,18.07
2019-03-19T20:45:13.953Z,22.27
2019-03-19T20:47:42.459Z,24.50
2019-03-19T20:50:13.832Z,23.27
2019-03-19T20:52:43.415Z,18.80
2019-03-19T20:55:11.967Z,21.67
2019-03-19T20:57:40.471Z,21.20
2019-03-19T21:00:16.224Z,20.77
2019-03-19T21:02:44.919Z,26.10
2019-03-19T21:05:13.447Z,21.73
2019-03-19T21:07:42.176Z,22.07
2019-03-19T21:10:16.579Z,22.03
2019-03-19T21:12:45.507Z,23.17
2019-03-19T21:15:24.247Z,21.80
2019-03-19T21:17:52.781Z,25.97
2019-03-19T21:20:21.406Z,22.87
2019-03-19T21:22:49.841Z,23.50
2019-03-19T21:25:18.427Z,26.63
2019-03-19T21:27:47.211Z,30.23
2019-03-19T21:30:22.091Z,18.70
2019-03-19T21:32:50.596Z,19.33
2019-03-19T21:35:24.647Z,20.83
2019-03-19T21:37:53.220Z,20.90
2019-03-19T21:40:21.952Z,20.90
2019-03-19T21:42:50.395Z,21.63
2019-03-19T21:45:20.050Z,18.10
2019-03-19T21:47:48.646Z,18.20
2019-03-19T21:50:23.292Z,16.37
2019-03-19T21:52:51.787Z,17.47
2019-03-19T21:55:20.483Z,22.23
2019-03-19T21:57:49.284Z,18.33
2019-03-19T22:00:18.960Z,22.57
2019-03-19T22:02:47.482Z,22.83
2019-03-19T22:05:16.237Z,18.63
2019-03-19T22:07:45.077Z,22.10
2019-03-19T22:10:20.439Z,22.30
2019-03-19T22:12:49.561Z,25.27
2019-03-19T22:15:25.228Z,25.03
2019-03-19T22:17:53.743Z,27.13
2019-03-19T22:20:22.459Z,17.67
2019-03-19T22:22:51.295Z,24.10
2019-03-19T22:25:19.717Z,24.10
2019-03-19T22:27:48.170Z,22.93
2019-03-19T22:30:20.347Z,23.20
2019-03-19T22:32:48.805Z,22.70
2019-03-19T22:35:17.589Z,24.13
2019-03-19T22:37:46.292Z,23.43
2019-03-19T22:40:18.764Z,21.57
2019-03-19T22:42:47.576Z,24.53
2019-03-19T22:45:18.243Z,19.57
2019-03-19T22:47:47.153Z,23.30
2019-03-19T22:50:17.790Z,23.47
2019-03-19T22:52:46.548Z,22.00
2019-03-19T22:55:15.511Z,45.37
2019-03-19T22:57:44.281Z,25.67
2019-03-19T23:00:33.641Z,21.50
2019-03-19T23:03:02.083Z,25.70
2019-03-19T23:05:30.775Z,20.30
2019-03-19T23:07:59.392Z,23.03
2019-03-19T23:10:27.989Z,20.87
2019-03-19T23:12:56.571Z,20.03
2019-03-19T23:15:25.456Z,21.97
2019-03-19T23:17:53.975Z,26.63
2019-03-19T23:20:22.803Z,27.47
2019-03-19T23:22:51.264Z,21.23
2019-03-19T23:25:19.707Z,21.73
2019-03-19T23:27:48.164Z,22.63
2019-03-19T23:30:18.910Z,20.87
2019-03-19T23:32:47.352Z,19.27
2019-03-19T23:35:15.790Z,20.33
2019-03-19T23:37:44.508Z,18.00
2019-03-19T23:40:14.853Z,19.43
2019-03-19T23:42:43.659Z,23.13
2019-03-19T23:45:13.041Z,23.20
2019-03-19T23:47:41.483Z,20.67
2019-03-19T23:50:18.086Z,26.03
2019-03-19T23:52:46.784Z,32.57
2019-03-19T23:55:15.290Z,30.33
2019-03-19T23:57:43.731Z,32.67
